Wetterdaten: Woche 31.10.22 - 06.11.22 (KW44)
Datum Zeit Temp. Aussen Temp. o. S. Temp +5cm Feuchte Auss Luftdruck Regen Sonnenschein Regendauer Solar Windben Empfang
31.10.2022 00:00 14,2 C 13,3 C 10,0 C 93 % 1021,1 hPa 0,0 l/m 0,00 h 0,00 h 0 W/m 0,0 km/h (0 Bft) 97,69 %
31.10.2022 01:00 14,0 C 12,8 C 9,7 C 94 % 1021,2 hPa 0,0 l/m 0,00 h 0,00 h 0 W/m 0,0 km/h (0 Bft) 96,51 %
31.10.2022 02:00 13,9 C 13,0 C 9,9 C 95 % 1021,2 hPa 0,0 l/m 0,00 h 0,00 h 0 W/m 0,0 km/h (0 Bft) 96,00 %
31.10.2022 03:00 13,5 C 12,1 C 9,2 C 95 % 1021,0 hPa 0,0 l/m 0,00 h 0,00 h 0 W/m 0,0 km/h (0 Bft) 98,79 %
31.10.2022 04:00 12,9 C 11,5 C 8,8 C 95 % 1021,0 hPa 0,0 l/m 0,00 h 0,00 h 0 W/m 0,0 km/h (0 Bft) 95,94 %
31.10.2022 05:00 12,3 C 11,1 C 8,3 C 96 % 1020,9 hPa 0,0 l/m 0,00 h 0,00 h 0 W/m 0,0 km/h (0 Bft) 87,48 %
31.10.2022 06:00 11,9 C 10,8 C 8,3 C 96 % 1020,6 hPa 0,0 l/m 0,00 h 0,00 h 0 W/m 0,0 km/h (0 Bft) 91,46 %
31.10.2022 07:00 11,7 C 10,6 C 8,2 C 97 % 1020,5 hPa 0,0 l/m 0,00 h 0,00 h 9 W/m 0,0 km/h (0 Bft) 98,21 %
31.10.2022 08:00 11,4 C 10,9 C 8,0 C 97 % 1020,6 hPa 0,0 l/m 0,00 h 0,00 h 32 W/m 0,0 km/h (0 Bft) 96,52 %
31.10.2022 09:00 12,1 C 12,7 C 9,5 C 98 % 1020,7 hPa 0,0 l/m 0,00 h 0,00 h 78 W/m 0,0 km/h (0 Bft) 97,86 %
31.10.2022 10:00 13,4 C 14,9 C 10,7 C 98 % 1020,0 hPa 0,0 l/m 0,27 h 0,00 h 141 W/m 0,0 km/h (0 Bft) 98,09 %
31.10.2022 11:00 15,2 C 16,0 C 11,9 C 92 % 1019,3 hPa 0,0 l/m 0,00 h 0,00 h 159 W/m 0,0 km/h (0 Bft) 97,16 %
31.10.2022 12:00 16,5 C 16,7 C 12,8 C 85 % 1018,6 hPa 0,0 l/m 0,13 h 0,00 h 181 W/m 8,0 km/h (2 Bft) 96,79 %
31.10.2022 13:00 17,6 C 18,1 C 13,4 C 82 % 1017,5 hPa 0,0 l/m 0,93 h 0,00 h 244 W/m 8,0 km/h (2 Bft) 95,66 %
31.10.2022 14:00 18,5 C 18,4 C 13,9 C 78 % 1016,1 hPa 0,0 l/m 0,63 h 0,00 h 169 W/m 10,2 km/h (2 Bft) 97,51 %
31.10.2022 15:00 18,6 C 18,0 C 13,9 C 76 % 1015,1 hPa 0,0 l/m 0,07 h 0,00 h 95 W/m 12,5 km/h (3 Bft) 97,46 %
31.10.2022 16:00 18,4 C 17,4 C 13,5 C 76 % 1014,3 hPa 0,0 l/m 0,00 h 0,00 h 30 W/m 11,3 km/h (2 Bft) 97,29 %
31.10.2022 17:00 17,6 C 16,4 C 12,6 C 77 % 1013,9 hPa 0,0 l/m 0,00 h 0,00 h 4 W/m 7,0 km/h (2 Bft) 98,22 %
31.10.2022 18:00 17,2 C 16,2 C 12,7 C 78 % 1013,5 hPa 0,0 l/m 0,00 h 0,00 h 0 W/m 12,4 km/h (3 Bft) 95,18 %
31.10.2022 19:00 16,8 C 15,8 C 12,1 C 79 % 1013,2 hPa 0,0 l/m 0,00 h 0,00 h 0 W/m 11,8 km/h (2 Bft) 98,64 %
31.10.2022 20:00 16,4 C 15,5 C 11,7 C 80 % 1012,8 hPa 0,0 l/m 0,00 h 0,00 h 0 W/m 14,8 km/h (3 Bft) 97,02 %
31.10.2022 21:00 15,8 C 14,9 C 11,1 C 81 % 1012,3 hPa 0,0 l/m 0,00 h 0,00 h 0 W/m 13,1 km/h (3 Bft) 96,73 %
31.10.2022 22:00 15,5 C 14,4 C 11,1 C 82 % 1011,8 hPa 0,0 l/m 0,00 h 0,00 h 0 W/m 13,2 km/h (3 Bft) 97,65 %
31.10.2022 23:00 15,2 C 14,4 C 10,7 C 83 % 1011,3 hPa 0,0 l/m 0,00 h 0,00 h 0 W/m 11,4 km/h (2 Bft) 97,80 %
01.11.2022 00:00 15,3 C 14,4 C 10,7 C 84 % 1011,2 hPa 0,0 l/m 0,00 h 0,33 h 0 W/m 12,7 km/h (3 Bft) 96,43 %
01.11.2022 01:00 15,0 C 14,2 C 10,1 C 88 % 1010,6 hPa 0,0 l/m 0,00 h 0,07 h 0 W/m 8,8 km/h (2 Bft) 99,50 %
01.11.2022 02:00 15,2 C 14,4 C 10,8 C 88 % 1010,3 hPa 0,0 l/m 0,00 h 0,00 h 0 W/m 7,3 km/h (2 Bft) 97,12 %
01.11.2022 03:00 15,5 C 14,8 C 11,1 C 88 % 1010,2 hPa 0,0 l/m 0,00 h 0,00 h 0 W/m 8,7 km/h (2 Bft) 97,00 %
01.11.2022 04:00 16,6 C 15,9 C 12,0 C 87 % 1010,3 hPa 0,0 l/m 0,00 h 0,00 h 0 W/m 22,4 km/h (4 Bft) 96,66 %
01.11.2022 05:00 16,8 C 15,9 C 12,0 C 84 % 1011,1 hPa 0,0 l/m 0,00 h 0,00 h 0 W/m 21,5 km/h (4 Bft) 97,15 %
01.11.2022 06:00 16,8 C 15,8 C 12,0 C 80 % 1012,3 hPa 0,0 l/m 0,00 h 0,00 h 0 W/m 20,3 km/h (4 Bft) 97,07 %
01.11.2022 07:00 15,2 C 14,1 C 10,7 C 76 % 1013,7 hPa 0,0 l/m 0,00 h 0,00 h 5 W/m 20,9 km/h (4 Bft) 98,65 %
01.11.2022 08:00 14,0 C 13,0 C 9,4 C 78 % 1015,0 hPa 0,0 l/m 0,00 h 0,00 h 23 W/m 19,1 km/h (3 Bft) 96,79 %
01.11.2022 09:00 14,2 C 14,0 C 9,9 C 72 % 1015,8 hPa 0,0 l/m 0,47 h 0,00 h 130 W/m 29,1 km/h (5 Bft) 97,23 %
01.11.2022 10:00 15,2 C 19,3 C 10,6 C 69 % 1016,4 hPa 0,0 l/m 0,60 h 0,00 h 230 W/m 31,6 km/h (5 Bft) 98,72 %
01.11.2022 11:00 15,7 C 15,2 C 11,1 C 69 % 1016,8 hPa 0,0 l/m 0,00 h 0,00 h 53 W/m 30,8 km/h (5 Bft) 95,45 %
01.11.2022 12:00 16,0 C 15,9 C 11,4 C 68 % 1017,0 hPa 0,0 l/m 0,03 h 0,00 h 80 W/m 31,6 km/h (5 Bft) 98,13 %
01.11.2022 13:00 16,6 C 17,0 C 11,7 C 67 % 1017,0 hPa 0,0 l/m 1,00 h 0,00 h 388 W/m 29,3 km/h (5 Bft) 98,44 %
01.11.2022 14:00 16,8 C 17,5 C 11,7 C 66 % 1016,8 hPa 0,0 l/m 1,00 h 0,00 h 307 W/m 27,5 km/h (4 Bft) 94,73 %
01.11.2022 15:00 16,4 C 15,7 C 11,5 C 67 % 1016,7 hPa 0,0 l/m 0,60 h 0,00 h 126 W/m 32,6 km/h (5 Bft) 99,50 %
01.11.2022 16:00 15,7 C 14,7 C 10,9 C 68 % 1016,8 hPa 0,0 l/m 0,00 h 0,00 h 21 W/m 22,7 km/h (4 Bft) 96,59 %
01.11.2022 17:00 14,6 C 13,4 C 9,7 C 72 % 1017,0 hPa 0,0 l/m 0,00 h 0,00 h 6 W/m 12,3 km/h (3 Bft) 97,51 %
01.11.2022 18:00 13,7 C 12,8 C 9,1 C 75 % 1017,2 hPa 0,0 l/m 0,00 h 0,00 h 0 W/m 13,3 km/h (3 Bft) 97,64 %
01.11.2022 19:00 13,2 C 12,2 C 8,9 C 77 % 1017,2 hPa 0,0 l/m 0,00 h 0,00 h 0 W/m 13,9 km/h (3 Bft) 95,27 %
01.11.2022 20:00 12,9 C 12,0 C 8,4 C 78 % 1017,1 hPa 0,0 l/m 0,00 h 0,00 h 0 W/m 16,9 km/h (3 Bft) 98,15 %
01.11.2022 21:00 12,5 C 11,6 C 8,0 C 80 % 1017,1 hPa 0,0 l/m 0,00 h 0,00 h 0 W/m 10,6 km/h (2 Bft) 98,51 %
01.11.2022 22:00 12,4 C 11,7 C 8,2 C 80 % 1017,0 hPa 0,0 l/m 0,00 h 0,00 h 0 W/m 14,7 km/h (3 Bft) 96,26 %
01.11.2022 23:00 12,9 C 12,2 C 8,6 C 80 % 1016,6 hPa 0,0 l/m 0,00 h 0,00 h 0 W/m 17,0 km/h (3 Bft) 98,27 %
02.11.2022 00:00 14,0 C 13,2 C 9,4 C 76 % 1016,3 hPa 0,0 l/m 0,00 h 0,03 h 0 W/m 23,4 km/h (4 Bft) 94,04 %
02.11.2022 01:00 14,0 C 13,1 C 9,2 C 78 % 1016,3 hPa 0,0 l/m 0,00 h 0,03 h 0 W/m 22,7 km/h (4 Bft) 95,89 %
02.11.2022 02:00 13,8 C 12,8 C 9,0 C 79 % 1016,4 hPa 0,0 l/m 0,00 h 0,00 h 0 W/m 23,5 km/h (4 Bft) 96,95 %
02.11.2022 03:00 13,5 C 12,7 C 8,9 C 81 % 1016,4 hPa 0,0 l/m 0,00 h 0,00 h 0 W/m 21,4 km/h (4 Bft) 96,58 %
02.11.2022 04:00 13,1 C 12,1 C 8,6 C 81 % 1016,8 hPa 0,0 l/m 0,00 h 0,00 h 0 W/m 22,1 km/h (4 Bft) 97,79 %
02.11.2022 05:00 12,7 C 11,8 C 8,3 C 81 % 1017,5 hPa 0,0 l/m 0,00 h 0,00 h 0 W/m 26,1 km/h (4 Bft) 97,86 %
02.11.2022 06:00 12,4 C 11,5 C 8,0 C 81 % 1018,1 hPa 0,0 l/m 0,00 h 0,00 h 0 W/m 21,9 km/h (4 Bft) 97,86 %
02.11.2022 07:00 12,0 C 11,2 C 7,8 C 82 % 1019,0 hPa 0,0 l/m 0,00 h 0,00 h 10 W/m 19,2 km/h (3 Bft) 94,14 %
02.11.2022 08:00 12,1 C 11,7 C 7,8 C 82 % 1020,3 hPa 0,0 l/m 0,00 h 0,00 h 35 W/m 18,9 km/h (3 Bft) 98,08 %
02.11.2022 09:00 12,5 C 12,4 C 8,3 C 81 % 1021,1 hPa 0,0 l/m 0,27 h 0,00 h 100 W/m 17,8 km/h (3 Bft) 89,39 %
02.11.2022 10:00 13,3 C 15,4 C 9,0 C 78 % 1021,6 hPa 0,0 l/m 0,33 h 0,00 h 157 W/m 18,2 km/h (3 Bft) 78,23 %
02.11.2022 11:00 14,1 C 13,9 C 9,7 C 73 % 1021,9 hPa 0,0 l/m 0,00 h 0,00 h 74 W/m 20,5 km/h (4 Bft) 90,40 %
02.11.2022 12:00 14,6 C 14,5 C 10,2 C 70 % 1022,1 hPa 0,0 l/m 0,10 h 0,00 h 113 W/m 21,0 km/h (4 Bft) 96,44 %
02.11.2022 13:00 15,0 C 15,1 C 10,5 C 71 % 1021,9 hPa 0,0 l/m 0,33 h 0,00 h 208 W/m 16,5 km/h (3 Bft) 97,15 %
02.11.2022 14:00 14,9 C 15,0 C 10,5 C 72 % 1021,5 hPa 0,0 l/m 0,40 h 0,00 h 168 W/m 13,9 km/h (3 Bft) 98,29 %
02.11.2022 15:00 15,0 C 14,3 C 10,4 C 69 % 1021,1 hPa 0,0 l/m 0,43 h 0,00 h 106 W/m 19,1 km/h (3 Bft) 94,87 %
02.11.2022 16:00 14,1 C 12,9 C 9,2 C 72 % 1020,8 hPa 0,0 l/m 0,00 h 0,00 h 15 W/m 11,7 km/h (2 Bft) 92,09 %
02.11.2022 17:00 12,9 C 11,8 C 8,1 C 74 % 1020,5 hPa 0,0 l/m 0,00 h 0,00 h 3 W/m 8,2 km/h (2 Bft) 92,76 %
02.11.2022 18:00 11,8 C 10,6 C 7,3 C 77 % 1020,5 hPa 0,0 l/m 0,00 h 0,00 h 0 W/m 6,2 km/h (2 Bft) 98,02 %
02.11.2022 19:00 11,2 C 10,4 C 7,0 C 78 % 1020,2 hPa 0,0 l/m 0,00 h 0,00 h 0 W/m 6,0 km/h (2 Bft) 98,15 %
02.11.2022 20:00 10,7 C 9,7 C 6,4 C 79 % 1019,8 hPa 0,0 l/m 0,00 h 0,00 h 0 W/m 6,9 km/h (2 Bft) 98,15 %
02.11.2022 21:00 10,0 C 9,1 C 5,9 C 82 % 1019,0 hPa 0,0 l/m 0,00 h 0,00 h 0 W/m 10,5 km/h (2 Bft) 96,65 %
02.11.2022 22:00 9,8 C 8,9 C 5,6 C 84 % 1018,4 hPa 0,0 l/m 0,00 h 0,00 h 0 W/m 12,6 km/h (3 Bft) 96,92 %
02.11.2022 23:00 10,1 C 9,4 C 6,1 C 84 % 1017,8 hPa 0,0 l/m 0,00 h 0,00 h 0 W/m 16,2 km/h (3 Bft) 98,50 %
03.11.2022 00:00 10,3 C 9,4 C 6,1 C 83 % 1017,1 hPa 0,0 l/m 0,00 h 0,00 h 0 W/m 19,4 km/h (3 Bft) 96,12 %
03.11.2022 01:00 10,2 C 9,4 C 6,1 C 84 % 1016,7 hPa 0,0 l/m 0,00 h 0,00 h 0 W/m 17,1 km/h (3 Bft) 98,01 %
03.11.2022 02:00 9,8 C 8,9 C 5,6 C 86 % 1016,1 hPa 0,0 l/m 0,00 h 0,00 h 0 W/m 14,5 km/h (3 Bft) 96,23 %
03.11.2022 03:00 10,0 C 9,3 C 6,0 C 88 % 1015,1 hPa 0,0 l/m 0,00 h 0,00 h 0 W/m 17,3 km/h (3 Bft) 96,08 %
03.11.2022 04:00 10,1 C 9,4 C 6,1 C 89 % 1014,3 hPa 0,0 l/m 0,00 h 0,00 h 0 W/m 16,5 km/h (3 Bft) 98,29 %
03.11.2022 05:00 10,3 C 9,4 C 6,1 C 90 % 1013,7 hPa 0,0 l/m 0,00 h 0,00 h 0 W/m 16,3 km/h (3 Bft) 99,36 %
03.11.2022 06:00 10,4 C 9,7 C 6,5 C 90 % 1012,9 hPa 0,0 l/m 0,00 h 0,00 h 0 W/m 19,1 km/h (3 Bft) 95,03 %
03.11.2022 07:00 10,6 C 10,0 C 6,7 C 90 % 1012,3 hPa 0,0 l/m 0,00 h 0,00 h 7 W/m 19,7 km/h (3 Bft) 99,79 %
03.11.2022 08:00 11,0 C 10,6 C 7,0 C 89 % 1011,7 hPa 0,0 l/m 0,00 h 0,00 h 43 W/m 18,2 km/h (3 Bft) 96,65 %
03.11.2022 09:00 11,8 C 11,5 C 7,8 C 87 % 1011,1 hPa 0,0 l/m 0,00 h 0,00 h 77 W/m 19,0 km/h (3 Bft) 96,46 %
03.11.2022 10:00 12,6 C 12,4 C 8,7 C 86 % 1009,9 hPa 0,0 l/m 0,00 h 0,00 h 112 W/m 16,5 km/h (3 Bft) 97,82 %
03.11.2022 11:00 13,7 C 13,5 C 9,6 C 82 % 1008,5 hPa 0,0 l/m 0,00 h 0,00 h 150 W/m 19,7 km/h (3 Bft) 97,39 %
03.11.2022 12:00 14,3 C 13,9 C 10,0 C 78 % 1007,5 hPa 0,0 l/m 0,00 h 0,00 h 151 W/m 22,3 km/h (4 Bft) 96,85 %
03.11.2022 13:00 13,9 C 13,5 C 9,6 C 79 % 1006,0 hPa 0,0 l/m 0,10 h 0,00 h 123 W/m 25,2 km/h (4 Bft) 99,50 %
03.11.2022 14:00 13,9 C 13,4 C 9,4 C 79 % 1004,5 hPa 0,0 l/m 0,00 h 0,00 h 100 W/m 19,2 km/h (3 Bft) 95,23 %
03.11.2022 15:00 13,6 C 12,8 C 8,8 C 81 % 1003,6 hPa 0,2 l/m 0,00 h 0,27 h 30 W/m 21,7 km/h (4 Bft) 98,79 %
03.11.2022 16:00 12,1 C 10,9 C 6,7 C 90 % 1003,0 hPa 1,2 l/m 0,00 h 0,93 h 7 W/m 14,7 km/h (3 Bft) 98,29 %
03.11.2022 17:00 11,5 C 10,6 C 6,7 C 93 % 1001,8 hPa 0,4 l/m 0,00 h 0,77 h 0 W/m 16,1 km/h (3 Bft) 94,43 %
03.11.2022 18:00 11,2 C 10,2 C 6,7 C 95 % 1001,1 hPa 0,2 l/m 0,00 h 0,17 h 0 W/m 17,0 km/h (3 Bft) 98,31 %
03.11.2022 19:00 11,3 C 10,6 C 6,8 C 95 % 1000,8 hPa 0,0 l/m 0,00 h 0,03 h 0 W/m 16,0 km/h (3 Bft) 98,22 %
03.11.2022 20:00 11,6 C 10,7 C 7,2 C 95 % 1000,5 hPa 0,0 l/m 0,00 h 0,60 h 0 W/m 14,1 km/h (3 Bft) 95,87 %
03.11.2022 21:00 11,5 C 10,6 C 7,2 C 96 % 1000,3 hPa 0,4 l/m 0,00 h 0,23 h 0 W/m 12,6 km/h (3 Bft) 98,86 %
03.11.2022 22:00 11,4 C 10,9 C 7,2 C 96 % 1000,5 hPa 0,0 l/m 0,00 h 0,07 h 0 W/m 14,9 km/h (3 Bft) 97,37 %
03.11.2022 23:00 11,4 C 10,7 C 7,0 C 94 % 1001,1 hPa 0,4 l/m 0,00 h 0,47 h 0 W/m 18,3 km/h (3 Bft) 96,22 %
04.11.2022 00:00 10,6 C 9,7 C 6,1 C 93 % 1002,1 hPa 0,0 l/m 0,00 h 0,00 h 0 W/m 13,0 km/h (3 Bft) 98,40 %
04.11.2022 01:00 10,3 C 9,4 C 5,9 C 92 % 1002,9 hPa 0,0 l/m 0,00 h 0,50 h 0 W/m 19,5 km/h (3 Bft) 97,58 %
04.11.2022 02:00 10,3 C 9,3 C 5,8 C 93 % 1003,6 hPa 0,0 l/m 0,00 h 0,00 h 0 W/m 18,8 km/h (3 Bft) 97,51 %
04.11.2022 03:00 9,6 C 8,6 C 5,2 C 93 % 1003,9 hPa 0,0 l/m 0,00 h 0,00 h 0 W/m 17,0 km/h (3 Bft) 95,88 %
04.11.2022 04:00 8,9 C 8,0 C 4,6 C 93 % 1003,8 hPa 0,0 l/m 0,00 h 0,00 h 0 W/m 12,0 km/h (2 Bft) 99,27 %
04.11.2022 05:00 8,3 C 7,3 C 4,4 C 94 % 1004,0 hPa 0,0 l/m 0,00 h 0,00 h 0 W/m 4,6 km/h (1 Bft) 95,05 %
04.11.2022 06:00 7,7 C 6,8 C 4,2 C 95 % 1004,4 hPa 0,0 l/m 0,00 h 0,00 h 0 W/m 3,5 km/h (1 Bft) 97,43 %
04.11.2022 07:00 7,4 C 6,3 C 3,9 C 95 % 1004,8 hPa 0,0 l/m 0,00 h 0,00 h 6 W/m 0,3 km/h (0 Bft) 94,91 %
04.11.2022 08:00 7,5 C 7,2 C 4,6 C 96 % 1005,4 hPa 0,2 l/m 0,00 h 0,07 h 20 W/m 2,8 km/h (1 Bft) 82,74 %
04.11.2022 09:00 8,6 C 8,6 C 5,6 C 96 % 1006,1 hPa 0,0 l/m 0,00 h 0,03 h 50 W/m 8,1 km/h (2 Bft) 97,38 %
04.11.2022 10:00 9,4 C 9,9 C 6,7 C 95 % 1006,4 hPa 0,0 l/m 0,00 h 0,00 h 104 W/m 5,8 km/h (2 Bft) 96,22 %
04.11.2022 11:00 10,3 C 11,1 C 7,3 C 93 % 1006,7 hPa 0,0 l/m 0,00 h 0,00 h 89 W/m 1,2 km/h (1 Bft) 99,17 %
04.11.2022 12:00 11,7 C 12,1 C 8,2 C 88 % 1007,3 hPa 0,0 l/m 0,03 h 0,00 h 111 W/m 3,1 km/h (1 Bft) 96,18 %
04.11.2022 13:00 12,3 C 12,5 C 8,4 C 85 % 1007,5 hPa 0,0 l/m 0,10 h 0,00 h 135 W/m 4,3 km/h (1 Bft) 98,01 %
04.11.2022 14:00 12,3 C 12,2 C 8,0 C 85 % 1008,0 hPa 0,0 l/m 0,23 h 0,00 h 112 W/m 4,3 km/h (1 Bft) 97,15 %
04.11.2022 15:00 12,2 C 11,9 C 7,8 C 86 % 1008,6 hPa 0,0 l/m 0,13 h 0,00 h 64 W/m 1,5 km/h (1 Bft) 98,43 %
04.11.2022 16:00 11,5 C 10,0 C 6,5 C 87 % 1009,6 hPa 0,0 l/m 0,00 h 0,00 h 11 W/m 0,4 km/h (0 Bft) 95,88 %
04.11.2022 17:00 10,7 C 9,5 C 6,1 C 90 % 1010,4 hPa 0,0 l/m 0,00 h 0,00 h 0 W/m 0,3 km/h (0 Bft) 96,82 %
04.11.2022 18:00 10,5 C 9,4 C 6,3 C 92 % 1011,1 hPa 0,0 l/m 0,00 h 0,00 h 0 W/m 0,6 km/h (0 Bft) 96,39 %
04.11.2022 19:00 10,1 C 9,0 C 6,0 C 93 % 1011,8 hPa 0,0 l/m 0,00 h 0,00 h 0 W/m 0,1 km/h (0 Bft) 98,43 %
04.11.2022 20:00 9,8 C 8,7 C 5,9 C 94 % 1012,3 hPa 0,0 l/m 0,00 h 0,00 h 0 W/m 1,3 km/h (1 Bft) 95,74 %
04.11.2022 21:00 9,7 C 9,1 C 6,1 C 95 % 1013,1 hPa 0,0 l/m 0,00 h 0,00 h 0 W/m 3,1 km/h (1 Bft) 97,37 %
04.11.2022 22:00 9,1 C 7,9 C 5,1 C 94 % 1014,1 hPa 0,0 l/m 0,00 h 0,00 h 0 W/m 0,6 km/h (0 Bft) 98,72 %
04.11.2022 23:00 8,3 C 7,3 C 4,6 C 94 % 1014,7 hPa 0,0 l/m 0,00 h 0,00 h 0 W/m 1,8 km/h (1 Bft) 96,72 %
05.11.2022 00:00 7,5 C 6,3 C 3,6 C 94 % 1015,0 hPa 0,0 l/m 0,00 h 0,00 h 0 W/m 1,1 km/h (1 Bft) 97,36 %
05.11.2022 01:00 7,0 C 6,0 C 3,5 C 95 % 1015,3 hPa 0,0 l/m 0,00 h 0,00 h 0 W/m 2,8 km/h (1 Bft) 97,08 %
05.11.2022 02:00 6,6 C 5,6 C 3,0 C 96 % 1015,9 hPa 0,0 l/m 0,00 h 0,00 h 0 W/m 0,9 km/h (0 Bft) 90,43 %
05.11.2022 03:00 6,2 C 5,3 C 2,9 C 96 % 1016,3 hPa 0,0 l/m 0,00 h 0,00 h 0 W/m 1,5 km/h (1 Bft) 95,13 %
05.11.2022 04:00 6,0 C 5,2 C 3,0 C 96 % 1016,3 hPa 0,0 l/m 0,00 h 0,00 h 0 W/m 0,4 km/h (0 Bft) 96,97 %
05.11.2022 05:00 5,6 C 4,7 C 2,2 C 97 % 1016,7 hPa 0,0 l/m 0,00 h 0,00 h 0 W/m 1,9 km/h (1 Bft) 97,61 %
05.11.2022 06:00 5,6 C 4,9 C 2,6 C 97 % 1017,0 hPa 0,0 l/m 0,00 h 0,00 h 0 W/m 3,7 km/h (1 Bft) 95,64 %
05.11.2022 07:00 5,5 C 4,5 C 2,4 C 97 % 1017,5 hPa 0,0 l/m 0,00 h 0,00 h 8 W/m 2,6 km/h (1 Bft) 96,66 %
05.11.2022 08:00 5,6 C 5,2 C 3,0 C 97 % 1018,1 hPa 0,2 l/m 0,00 h 0,00 h 22 W/m 4,8 km/h (1 Bft) 97,22 %
05.11.2022 09:00 6,6 C 7,5 C 4,0 C 98 % 1018,4 hPa 0,0 l/m 0,33 h 0,00 h 101 W/m 9,0 km/h (2 Bft) 96,83 %
05.11.2022 10:00 9,0 C 16,1 C 5,8 C 95 % 1018,6 hPa 0,0 l/m 0,80 h 0,00 h 243 W/m 11,6 km/h (2 Bft) 96,27 %
05.11.2022 11:00 10,7 C 10,7 C 7,0 C 85 % 1018,8 hPa 0,0 l/m 0,00 h 0,00 h 60 W/m 13,6 km/h (3 Bft) 97,28 %
05.11.2022 12:00 11,3 C 11,5 C 7,6 C 82 % 1018,9 hPa 0,0 l/m 0,00 h 0,00 h 151 W/m 14,0 km/h (3 Bft) 97,61 %
05.11.2022 13:00 11,3 C 11,3 C 7,7 C 81 % 1018,8 hPa 0,0 l/m 0,00 h 0,00 h 163 W/m 16,7 km/h (3 Bft) 97,25 %
05.11.2022 14:00 11,4 C 11,3 C 7,7 C 78 % 1018,3 hPa 0,0 l/m 0,33 h 0,00 h 134 W/m 17,6 km/h (3 Bft) 96,60 %
05.11.2022 15:00 11,3 C 10,8 C 7,2 C 78 % 1017,9 hPa 0,0 l/m 0,00 h 0,00 h 63 W/m 10,1 km/h (2 Bft) 97,87 %
05.11.2022 16:00 10,9 C 10,0 C 6,7 C 80 % 1017,8 hPa 0,0 l/m 0,00 h 0,00 h 19 W/m 5,2 km/h (1 Bft) 97,46 %
05.11.2022 17:00 10,4 C 9,4 C 6,1 C 81 % 1017,9 hPa 0,0 l/m 0,00 h 0,00 h 0 W/m 6,9 km/h (2 Bft) 96,69 %
05.11.2022 18:00 10,1 C 9,4 C 6,1 C 83 % 1017,9 hPa 0,0 l/m 0,00 h 0,00 h 0 W/m 7,5 km/h (2 Bft) 97,75 %
05.11.2022 19:00 10,0 C 9,4 C 6,1 C 85 % 1018,0 hPa 0,0 l/m 0,00 h 0,00 h 0 W/m 13,3 km/h (3 Bft) 96,58 %
05.11.2022 20:00 9,8 C 8,9 C 5,6 C 87 % 1017,9 hPa 0,0 l/m 0,00 h 0,00 h 0 W/m 12,8 km/h (3 Bft) 97,03 %
05.11.2022 21:00 9,6 C 8,9 C 5,6 C 87 % 1018,0 hPa 0,0 l/m 0,00 h 0,00 h 0 W/m 12,7 km/h (3 Bft) 97,33 %
05.11.2022 22:00 9,3 C 8,4 C 5,4 C 86 % 1017,9 hPa 0,0 l/m 0,00 h 0,00 h 0 W/m 9,5 km/h (2 Bft) 96,75 %
05.11.2022 23:00 8,8 C 8,0 C 5,0 C 87 % 1017,4 hPa 0,0 l/m 0,00 h 0,00 h 0 W/m 11,4 km/h (2 Bft) 96,11 %
06.11.2022 00:00 8,5 C 7,5 C 4,6 C 87 % 1017,0 hPa 0,0 l/m 0,00 h 0,00 h 0 W/m 7,6 km/h (2 Bft) 98,92 %
06.11.2022 01:00 7,6 C 6,7 C 3,6 C 89 % 1016,7 hPa 0,0 l/m 0,00 h 0,00 h 0 W/m 8,1 km/h (2 Bft) 95,86 %
06.11.2022 02:00 7,1 C 6,3 C 3,3 C 91 % 1016,4 hPa 0,0 l/m 0,00 h 0,00 h 0 W/m 9,8 km/h (2 Bft) 98,85 %
06.11.2022 03:00 7,3 C 6,7 C 3,8 C 92 % 1016,0 hPa 0,0 l/m 0,00 h 0,00 h 0 W/m 10,9 km/h (2 Bft) 95,24 %
06.11.2022 04:00 7,4 C 6,7 C 3,9 C 91 % 1015,7 hPa 0,0 l/m 0,00 h 0,00 h 0 W/m 11,8 km/h (2 Bft) 96,68 %
06.11.2022 05:00 7,3 C 6,7 C 3,6 C 91 % 1015,3 hPa 0,0 l/m 0,00 h 0,00 h 0 W/m 13,7 km/h (3 Bft) 97,93 %
06.11.2022 06:00 7,2 C 6,7 C 3,4 C 92 % 1014,5 hPa 0,0 l/m 0,00 h 0,00 h 0 W/m 16,5 km/h (3 Bft) 96,59 %
06.11.2022 07:00 7,2 C 6,7 C 3,6 C 92 % 1014,1 hPa 0,0 l/m 0,00 h 0,00 h 8 W/m 14,8 km/h (3 Bft) 96,39 %
06.11.2022 08:00 7,9 C 7,5 C 4,4 C 92 % 1014,2 hPa 0,0 l/m 0,00 h 0,00 h 25 W/m 18,0 km/h (3 Bft) 96,18 %
06.11.2022 09:00 9,1 C 8,9 C 5,7 C 90 % 1014,0 hPa 0,0 l/m 0,00 h 0,00 h 81 W/m 17,3 km/h (3 Bft) 99,41 %
06.11.2022 10:00 10,4 C 11,2 C 6,8 C 87 % 1013,2 hPa 0,0 l/m 0,30 h 0,00 h 173 W/m 19,0 km/h (3 Bft) 96,88 %
06.11.2022 11:00 11,3 C 11,4 C 7,7 C 84 % 1012,5 hPa 0,0 l/m 0,17 h 0,00 h 166 W/m 20,7 km/h (4 Bft) 97,98 %
06.11.2022 12:00 11,9 C 12,0 C 8,0 C 81 % 1011,5 hPa 0,0 l/m 0,33 h 0,00 h 184 W/m 22,0 km/h (4 Bft) 96,17 %
06.11.2022 13:00 11,8 C 11,5 C 7,7 C 80 % 1010,3 hPa 0,0 l/m 0,10 h 0,00 h 132 W/m 22,8 km/h (4 Bft) 98,79 %
06.11.2022 14:00 11,7 C 11,5 C 7,8 C 81 % 1009,7 hPa 0,0 l/m 0,15 h 0,00 h 109 W/m 19,4 km/h (3 Bft) 97,24 %
06.11.2022 15:00 11,8 C 11,4 C 7,5 C 78 % 1009,4 hPa 0,0 l/m 0,00 h 0,20 h 37 W/m 13,4 km/h (3 Bft) 96,59 %
06.11.2022 16:00 10,8 C 9,5 C 5,0 C 82 % 1009,3 hPa 1,0 l/m 0,00 h 0,93 h 8 W/m 13,3 km/h (3 Bft) 98,25 %
06.11.2022 17:00 9,4 C 8,3 C 4,1 C 88 % 1008,4 hPa 0,0 l/m 0,00 h 0,00 h 0 W/m 15,7 km/h (3 Bft) 97,94 %
06.11.2022 18:00 9,2 C 8,4 C 3,9 C 88 % 1007,7 hPa 0,0 l/m 0,00 h 0,23 h 0 W/m 16,1 km/h (3 Bft) 96,61 %
06.11.2022 19:00 9,1 C 8,3 C 4,2 C 87 % 1007,5 hPa 0,0 l/m 0,00 h 0,00 h 0 W/m 16,3 km/h (3 Bft) 97,30 %
06.11.2022 20:00 9,3 C 8,7 C 5,2 C 85 % 1007,7 hPa 0,0 l/m 0,00 h 0,00 h 0 W/m 14,4 km/h (3 Bft) 98,46 %
06.11.2022 21:00 10,1 C 9,6 C 6,0 C 86 % 1008,2 hPa 0,0 l/m 0,00 h 0,00 h 0 W/m 19,2 km/h (3 Bft) 95,22 %
06.11.2022 22:00 10,8 C 10,0 C 6,7 C 87 % 1008,8 hPa 0,0 l/m 0,00 h 0,00 h 0 W/m 27,8 km/h (4 Bft) 95,13 %
06.11.2022 23:00 10,8 C 10,0 C 6,7 C 88 % 1009,3 hPa 0,0 l/m 0,00 h 0,00 h 0 W/m 23,7 km/h (4 Bft) 94,30 %
Min-Datum _ 05.11.22 05.11.22 05.11.22 01.11.22 03.11.22 - - - - 31.10.22 05.11.22
_ Min-Zeit 07:30 05:04 05:00 13:12 21:26 - - - - 00:00 02:17
Minimum _ 5,4 C 4,4 C 2,2 C 66 % 1000,1 hPa - - - - 0,0 km/h (0 Bft) 7,69 %
Max-Datum _ 31.10.22 01.11.22 31.10.22 31.10.22 02.11.22 03.11.22 05.11.22 03.11.22 02.11.22 01.11.22 31.10.22
_ Max-Zeit 14:12 10:12 13:38 09:08 12:12 16:00 09:57 18:08 12:58 11:12 00:10
Maximum _ 18,6 C 21,7 C 13,9 C 98 % 1022,2 hPa 1,2 l/m 0,08 h 0,07 h 445 W/m 54,7 km/h
SO (7 Bft)
100,00 %
Durchschnitt _ 11,8 C 11,2 C 7,6 C 85 % 1013,8 hPa #4,2 l/m #10:43 h #5:58 h 94 W/m 12,8 km/h (3 Bft) 96,67 %
© 2022 W. Hausmann